Time;durP1;ratioP1;P1;durP2;ratioP2;P2;SDS_P1;SDS_P2;PMS_P1;PMS_P2;Temp;Humidity;BMP_temperature;BMP_pressure;BME280_temperature;BME280_humidity;BME280_pressure;Samples;Min_cycle;Max_cycle;Signal;HPM_P1;HPM_P2
2023/08/18 00:02:24;;;;;;;6.65;3.50;;;;;;;;;;5031488;28;20028;-66
2023/08/18 00:04:49;;;;;;;10.23;3.15;;;;;;;;;;5031722;28;20032;-66
2023/08/18 00:07:15;;;;;;;9.38;3.97;;;;;;;;;;5013519;28;20021;-66
2023/08/18 00:09:43;;;;;;;9.73;3.60;;;;;;;;;;5031723;28;20072;-66
2023/08/18 00:12:09;;;;;;;6.00;3.40;;;;;;;;;;5031365;28;20037;-66
2023/08/18 00:14:35;;;;;;;4.78;3.40;;;;;;;;;;5031516;28;20087;-66
2023/08/18 00:17:01;;;;;;;11.18;3.72;;;;;;;;;;5031109;28;20025;-66
2023/08/18 00:19:27;;;;;;;11.63;4.05;;;;;;;;;;5036044;28;20048;-66
2023/08/18 00:21:52;;;;;;;26.50;5.53;;;;;;;;;;5044178;28;20032;-66
2023/08/18 00:24:18;;;;;;;9.25;3.95;;;;;;;;;;5029456;28;20340;-66
2023/08/18 00:26:45;;;;;;;8.65;3.55;;;;;;;;;;5033450;28;20387;-66
2023/08/18 00:29:12;;;;;;;9.15;3.80;;;;;;;;;;5041914;28;20040;-67
2023/08/18 00:31:38;;;;;;;9.35;4.20;;;;;;;;;;5034004;28;20096;-66
2023/08/18 00:34:04;;;;;;;10.38;4.65;;;;;;;;;;5037634;28;20136;-66
2023/08/18 00:36:31;;;;;;;7.03;4.35;;;;;;;;;;5039985;28;20471;-67
2023/08/18 00:38:58;;;;;;;11.50;4.50;;;;;;;;;;5035969;28;20045;-66
2023/08/18 00:41:26;;;;;;;7.25;3.95;;;;;;;;;;5030315;28;20200;-67
2023/08/18 00:43:52;;;;;;;15.13;4.28;;;;;;;;;;5030625;28;20650;-67
2023/08/18 00:46:20;;;;;;;9.43;3.90;;;;;;;;;;5029887;28;20025;-67
2023/08/18 00:48:47;;;;;;;12.18;4.07;;;;;;;;;;5030484;28;20426;-67
2023/08/18 00:51:13;;;;;;;8.93;4.10;;;;;;;;;;5030840;28;20029;-68
2023/08/18 00:53:41;;;;;;;15.52;4.57;;;;;;;;;;5029991;28;20048;-66
2023/08/18 00:56:09;;;;;;;11.00;4.43;;;;;;;;;;5029538;28;20112;-67
2023/08/18 00:58:36;;;;;;;9.70;3.75;;;;;;;;;;5026320;28;20037;-66
2023/08/18 01:01:03;;;;;;;13.75;4.15;;;;;;;;;;5026225;28;20033;-66
2023/08/18 01:03:33;;;;;;;9.63;4.05;;;;;;;;;;5029325;28;20488;-66
2023/08/18 01:05:59;;;;;;;12.60;4.20;;;;;;;;;;5029085;28;20080;-67
2023/08/18 01:08:25;;;;;;;8.68;4.10;;;;;;;;;;5029614;28;20029;-66
2023/08/18 01:11:17;;;;;;;7.20;3.90;;;;;;;;;;5029555;28;20044;-66
2023/08/18 01:13:49;;;;;;;9.23;3.60;;;;;;;;;;5028943;28;20475;-66
2023/08/18 01:16:22;;;;;;;6.15;4.20;;;;;;;;;;5029054;28;20041;-67
2023/08/18 01:18:50;;;;;;;7.75;4.20;;;;;;;;;;5035781;28;20129;-66
2023/08/18 01:21:17;;;;;;;8.93;3.50;;;;;;;;;;5037359;28;20029;-67
2023/08/18 01:23:43;;;;;;;11.45;4.40;;;;;;;;;;5036775;28;20056;-66
2023/08/18 01:26:09;;;;;;;9.00;4.22;;;;;;;;;;5028811;28;20065;-67
2023/08/18 01:28:35;;;;;;;7.20;3.80;;;;;;;;;;5022806;28;20030;-68
2023/08/18 01:31:06;;;;;;;9.13;3.90;;;;;;;;;;5010384;28;20033;-67
2023/08/18 01:33:40;;;;;;;13.85;4.03;;;;;;;;;;5035009;28;20052;-67
2023/08/18 01:36:11;;;;;;;7.43;4.18;;;;;;;;;;5032702;28;20029;-67
2023/08/18 01:38:38;;;;;;;10.73;3.47;;;;;;;;;;5030458;28;20037;-67
2023/08/18 01:41:07;;;;;;;8.80;4.00;;;;;;;;;;5028359;28;20053;-67
2023/08/18 01:43:35;;;;;;;5.18;3.83;;;;;;;;;;5027974;28;20068;-68
2023/08/18 01:46:03;;;;;;;8.45;4.00;;;;;;;;;;5029680;28;20033;-67
2023/08/18 01:48:29;;;;;;;7.70;4.18;;;;;;;;;;5030517;28;20091;-68
2023/08/18 01:50:55;;;;;;;5.93;3.72;;;;;;;;;;5024760;28;20025;-67
2023/08/18 01:53:20;;;;;;;5.63;4.03;;;;;;;;;;5035521;28;20503;-68
2023/08/18 01:55:46;;;;;;;9.65;4.00;;;;;;;;;;5032830;28;20036;-68
2023/08/18 01:58:13;;;;;;;7.43;3.67;;;;;;;;;;5033308;28;20033;-68
2023/08/18 02:00:38;;;;;;;7.35;4.00;;;;;;;;;;5010735;28;20522;-67
2023/08/18 02:03:04;;;;;;;5.10;3.60;;;;;;;;;;5028194;28;20464;-67
2023/08/18 02:05:30;;;;;;;10.73;4.22;;;;;;;;;;5025506;28;20021;-66
2023/08/18 02:07:57;;;;;;;7.72;3.67;;;;;;;;;;5028565;28;20037;-67
2023/08/18 02:10:23;;;;;;;9.52;4.20;;;;;;;;;;5037923;28;20518;-66
2023/08/18 02:12:48;;;;;;;6.00;3.83;;;;;;;;;;5036050;28;20060;-67
2023/08/18 02:15:14;;;;;;;8.25;3.78;;;;;;;;;;5035232;28;20025;-67
2023/08/18 02:17:40;;;;;;;5.05;3.78;;;;;;;;;;5034102;28;20509;-67
2023/08/18 02:20:08;;;;;;;13.38;3.80;;;;;;;;;;5036953;28;20030;-66
2023/08/18 02:22:35;;;;;;;8.65;4.15;;;;;;;;;;5030639;28;20036;-67
2023/08/18 02:25:02;;;;;;;7.35;4.40;;;;;;;;;;5043687;28;20383;-67
2023/08/18 02:27:28;;;;;;;10.63;4.28;;;;;;;;;;5030606;28;20036;-66
2023/08/18 02:29:55;;;;;;;9.48;4.20;;;;;;;;;;5035681;28;20025;-67
2023/08/18 02:32:22;;;;;;;6.65;3.80;;;;;;;;;;5027067;28;20029;-66
2023/08/18 02:34:48;;;;;;;12.00;3.88;;;;;;;;;;5027107;28;20022;-66
2023/08/18 02:37:14;;;;;;;9.80;4.30;;;;;;;;;;5039871;28;20106;-67
2023/08/18 02:39:39;;;;;;;9.13;4.47;;;;;;;;;;5042463;28;20029;-67
2023/08/18 02:42:05;;;;;;;7.35;4.32;;;;;;;;;;5045643;28;20037;-67
2023/08/18 02:44:33;;;;;;;8.02;4.43;;;;;;;;;;5035061;28;20018;-66
2023/08/18 02:47:00;;;;;;;9.25;4.10;;;;;;;;;;5048285;28;20506;-66
2023/08/18 02:49:25;;;;;;;8.50;4.18;;;;;;;;;;5030871;28;20120;-67
2023/08/18 02:51:51;;;;;;;7.47;4.05;;;;;;;;;;5025385;28;20060;-67
2023/08/18 02:54:17;;;;;;;8.88;4.40;;;;;;;;;;5027504;28;20032;-68
2023/08/18 02:56:43;;;;;;;10.90;4.30;;;;;;;;;;5026408;28;20411;-68
2023/08/18 02:59:08;;;;;;;6.43;3.97;;;;;;;;;;5009502;28;20022;-68
2023/08/18 03:01:34;;;;;;;10.27;4.57;;;;;;;;;;5023364;28;20503;-67
2023/08/18 03:04:00;;;;;;;7.43;3.85;;;;;;;;;;5042082;28;20078;-68
2023/08/18 03:06:26;;;;;;;7.65;4.45;;;;;;;;;;5026047;28;20057;-67
2023/08/18 03:08:51;;;;;;;9.45;4.88;;;;;;;;;;5032643;28;20494;-67
2023/08/18 03:11:17;;;;;;;6.53;4.40;;;;;;;;;;5031587;28;20045;-68
2023/08/18 03:13:43;;;;;;;6.07;4.13;;;;;;;;;;5043385;28;20075;-68
2023/08/18 03:16:09;;;;;;;8.93;4.25;;;;;;;;;;5034562;28;20099;-68
2023/08/18 03:18:35;;;;;;;8.20;4.10;;;;;;;;;;5060014;28;20071;-67
2023/08/18 03:21:03;;;;;;;9.63;4.53;;;;;;;;;;5033539;28;20126;-68
2023/08/18 03:23:30;;;;;;;11.65;5.47;;;;;;;;;;5025265;28;20021;-67
2023/08/18 03:26:03;;;;;;;11.82;4.65;;;;;;;;;;5026213;28;20037;-68
2023/08/18 03:28:36;;;;;;;9.38;4.63;;;;;;;;;;5027177;28;20033;-67
2023/08/18 03:31:07;;;;;;;11.25;4.60;;;;;;;;;;5028593;28;20045;-68
2023/08/18 03:33:34;;;;;;;9.57;4.75;;;;;;;;;;5026867;28;20095;-68
2023/08/18 03:36:03;;;;;;;11.50;4.63;;;;;;;;;;5042857;28;20032;-67
2023/08/18 03:38:29;;;;;;;13.93;4.60;;;;;;;;;;5027102;28;20167;-68
2023/08/18 03:40:58;;;;;;;8.82;5.05;;;;;;;;;;5029054;28;20029;-69
2023/08/18 03:43:24;;;;;;;10.93;4.78;;;;;;;;;;5029151;28;20048;-68
2023/08/18 03:45:50;;;;;;;9.02;4.60;;;;;;;;;;5034592;28;20040;-68
2023/08/18 03:48:16;;;;;;;8.82;4.55;;;;;;;;;;5006008;28;20090;-67
2023/08/18 03:50:43;;;;;;;10.80;4.97;;;;;;;;;;5044201;28;20029;-67
2023/08/18 03:53:09;;;;;;;16.42;5.55;;;;;;;;;;5026821;28;20754;-67
2023/08/18 03:55:34;;;;;;;19.50;6.07;;;;;;;;;;5031543;28;20112;-67
2023/08/18 03:58:00;;;;;;;10.77;4.68;;;;;;;;;;5037062;28;20032;-67
2023/08/18 04:00:26;;;;;;;10.13;4.32;;;;;;;;;;5037370;28;20367;-67
2023/08/18 04:02:52;;;;;;;8.70;4.28;;;;;;;;;;5039130;28;20041;-67
2023/08/18 04:05:18;;;;;;;11.68;5.25;;;;;;;;;;5034121;28;20032;-68
2023/08/18 04:07:44;;;;;;;12.20;4.75;;;;;;;;;;5039858;28;20037;-67
2023/08/18 04:10:10;;;;;;;10.40;4.50;;;;;;;;;;5036359;28;20060;-68
2023/08/18 04:12:36;;;;;;;11.65;4.70;;;;;;;;;;5030926;28;20753;-68
2023/08/18 04:15:01;;;;;;;9.70;4.30;;;;;;;;;;5035673;28;20029;-68
2023/08/18 04:17:27;;;;;;;14.90;8.25;;;;;;;;;;5044156;28;20130;-68
2023/08/18 04:19:53;;;;;;;17.50;6.20;;;;;;;;;;5019770;28;20104;-69
2023/08/18 04:22:19;;;;;;;15.65;6.50;;;;;;;;;;5030317;28;20112;-68
2023/08/18 04:24:46;;;;;;;15.70;5.85;;;;;;;;;;5013104;28;20026;-68
2023/08/18 04:27:13;;;;;;;16.92;5.28;;;;;;;;;;5030695;28;20037;-67
2023/08/18 04:29:40;;;;;;;12.57;5.65;;;;;;;;;;5018522;28;20036;-67
2023/08/18 04:32:06;;;;;;;17.45;5.35;;;;;;;;;;5042432;28;20099;-66
2023/08/18 04:34:32;;;;;;;21.48;6.20;;;;;;;;;;5030362;28;20026;-67
2023/08/18 04:36:59;;;;;;;12.07;5.10;;;;;;;;;;5031869;28;20117;-67
2023/08/18 04:39:25;;;;;;;13.32;4.80;;;;;;;;;;5014326;28;20029;-68
2023/08/18 04:41:51;;;;;;;16.08;4.80;;;;;;;;;;5027193;28;20594;-67
2023/08/18 04:44:17;;;;;;;9.52;3.90;;;;;;;;;;5028847;28;20101;-68
2023/08/18 04:46:44;;;;;;;12.73;3.90;;;;;;;;;;5023284;28;20026;-68
2023/08/18 04:49:16;;;;;;;12.18;4.00;;;;;;;;;;5009763;28;20034;-68
2023/08/18 04:51:42;;;;;;;8.40;4.32;;;;;;;;;;5014494;28;20212;-67
2023/08/18 04:54:08;;;;;;;9.63;4.00;;;;;;;;;;5051602;28;20068;-68
2023/08/18 04:56:34;;;;;;;13.00;4.47;;;;;;;;;;5053323;28;20060;-67
2023/08/18 04:58:59;;;;;;;8.95;3.97;;;;;;;;;;5031003;28;20029;-67
2023/08/18 05:01:26;;;;;;;6.90;3.92;;;;;;;;;;5012410;28;20038;-67
2023/08/18 05:03:51;;;;;;;11.60;4.22;;;;;;;;;;5012982;28;20535;-67
2023/08/18 05:06:17;;;;;;;7.32;3.47;;;;;;;;;;5029633;28;20041;-66
2023/08/18 05:08:44;;;;;;;6.03;4.05;;;;;;;;;;5032222;28;20454;-68
2023/08/18 05:11:11;;;;;;;9.32;3.97;;;;;;;;;;5032647;28;20120;-68
2023/08/18 05:13:38;;;;;;;9.02;3.72;;;;;;;;;;5015715;28;20464;-68
2023/08/18 05:16:04;;;;;;;7.70;3.42;;;;;;;;;;5033427;28;20479;-67
2023/08/18 05:18:30;;;;;;;7.78;3.60;;;;;;;;;;5032023;28;20092;-67
2023/08/18 05:21:00;;;;;;;7.78;3.60;;;;;;;;;;5028674;28;20454;-67
2023/08/18 05:23:27;;;;;;;6.78;3.83;;;;;;;;;;5036957;28;20140;-67
2023/08/18 05:25:54;;;;;;;10.73;3.67;;;;;;;;;;5041350;28;20041;-67
2023/08/18 05:28:24;;;;;;;11.45;3.72;;;;;;;;;;5033273;28;20044;-68
2023/08/18 05:30:52;;;;;;;7.20;3.20;;;;;;;;;;5040948;28;20033;-68
2023/08/18 05:33:18;;;;;;;8.23;3.90;;;;;;;;;;5033209;28;20033;-67
2023/08/18 05:35:43;;;;;;;8.93;3.33;;;;;;;;;;5031317;28;20064;-68
2023/08/18 05:38:13;;;;;;;6.57;3.50;;;;;;;;;;5032030;28;20018;-67
2023/08/18 05:40:49;;;;;;;11.05;3.90;;;;;;;;;;5055354;28;20395;-67
2023/08/18 05:43:16;;;;;;;11.93;3.78;;;;;;;;;;5042783;28;20141;-67
2023/08/18 05:45:46;;;;;;;9.98;3.72;;;;;;;;;;5035483;28;20104;-68
2023/08/18 05:48:13;;;;;;;10.75;3.60;;;;;;;;;;5037763;28;20040;-67
2023/08/18 05:50:39;;;;;;;8.68;4.13;;;;;;;;;;5048777;28;20032;-67
2023/08/18 05:53:05;;;;;;;7.65;3.75;;;;;;;;;;5040029;28;20037;-67
2023/08/18 05:55:31;;;;;;;9.90;4.00;;;;;;;;;;5039697;28;20025;-67
2023/08/18 05:58:04;;;;;;;5.65;3.50;;;;;;;;;;5044085;28;20043;-67
2023/08/18 06:00:30;;;;;;;;;;;;;;;;;;5037066;28;20494;-66
2023/08/18 06:02:56;;;;;;;9.20;4.10;;;;;;;;;;5043640;28;19915;-67
2023/08/18 06:05:28;;;;;;;6.88;3.67;;;;;;;;;;5037582;28;20052;-67
2023/08/18 06:07:54;;;;;;;11.85;4.25;;;;;;;;;;5040768;28;20045;-67
2023/08/18 06:10:20;;;;;;;7.75;3.80;;;;;;;;;;5038556;28;20055;-68
2023/08/18 06:12:46;;;;;;;9.63;3.80;;;;;;;;;;5041979;28;20483;-67
2023/08/18 06:15:13;;;;;;;7.97;3.33;;;;;;;;;;5037529;28;20087;-67
2023/08/18 06:17:40;;;;;;;10.25;3.30;;;;;;;;;;5030539;28;20439;-67
2023/08/18 06:20:06;;;;;;;9.80;3.63;;;;;;;;;;5035041;28;20017;-67
2023/08/18 06:22:32;;;;;;;6.93;3.47;;;;;;;;;;5036354;28;20037;-67
2023/08/18 06:24:58;;;;;;;9.75;3.80;;;;;;;;;;5035223;28;20021;-66
2023/08/18 06:27:24;;;;;;;21.15;4.00;;;;;;;;;;5038654;28;20471;-67
2023/08/18 06:29:49;;;;;;;8.93;3.72;;;;;;;;;;5048843;28;20056;-66
2023/08/18 06:32:15;;;;;;;7.63;3.28;;;;;;;;;;5037224;28;20419;-66
2023/08/18 06:34:41;;;;;;;8.88;3.60;;;;;;;;;;5037524;28;20290;-67
2023/08/18 06:37:07;;;;;;;7.70;3.50;;;;;;;;;;5029986;28;20049;-66
2023/08/18 06:39:32;;;;;;;12.07;3.78;;;;;;;;;;5039324;28;20036;-67
2023/08/18 06:41:58;;;;;;;4.68;2.83;;;;;;;;;;5031998;28;20387;-66
2023/08/18 06:44:24;;;;;;;7.95;3.40;;;;;;;;;;5035352;28;20025;-67
2023/08/18 06:46:50;;;;;;;6.78;2.85;;;;;;;;;;5040106;28;20036;-68
2023/08/18 06:49:15;;;;;;;9.20;3.25;;;;;;;;;;5034187;28;20081;-67
2023/08/18 06:51:41;;;;;;;8.10;3.20;;;;;;;;;;5039824;28;20499;-68
2023/08/18 06:54:07;;;;;;;11.38;2.92;;;;;;;;;;5040079;28;20029;-68
2023/08/18 06:56:33;;;;;;;5.25;2.70;;;;;;;;;;5038538;28;20068;-67
2023/08/18 06:58:58;;;;;;;7.18;3.08;;;;;;;;;;5033183;28;20044;-67
2023/08/18 07:01:25;;;;;;;3.55;2.92;;;;;;;;;;5035918;28;20044;-68
2023/08/18 07:03:52;;;;;;;9.48;3.20;;;;;;;;;;5030884;28;20013;-68
2023/08/18 07:06:20;;;;;;;6.03;3.03;;;;;;;;;;5039722;28;20067;-68
2023/08/18 07:08:45;;;;;;;8.00;3.20;;;;;;;;;;5039488;28;20025;-68
2023/08/18 07:11:11;;;;;;;5.53;2.90;;;;;;;;;;5031552;28;20087;-67
2023/08/18 07:13:37;;;;;;;7.13;2.75;;;;;;;;;;5030609;28;20070;-68
2023/08/18 07:16:03;;;;;;;5.07;2.90;;;;;;;;;;5035206;28;20049;-67
2023/08/18 07:18:29;;;;;;;6.57;2.90;;;;;;;;;;5032847;28;20503;-67
2023/08/18 07:20:57;;;;;;;5.68;2.72;;;;;;;;;;5032542;28;20029;-68
2023/08/18 07:23:24;;;;;;;4.85;2.60;;;;;;;;;;5038975;28;20029;-67
2023/08/18 07:25:50;;;;;;;6.47;2.80;;;;;;;;;;5043003;28;20477;-68
2023/08/18 07:28:16;;;;;;;7.88;3.08;;;;;;;;;;5049999;28;20025;-67
2023/08/18 07:30:42;;;;;;;8.70;3.00;;;;;;;;;;5026990;28;20034;-67
2023/08/18 07:33:07;;;;;;;7.63;2.72;;;;;;;;;;5027484;28;20164;-67
2023/08/18 07:35:34;;;;;;;8.63;2.25;;;;;;;;;;5031072;28;20092;-67
2023/08/18 07:37:59;;;;;;;12.65;2.88;;;;;;;;;;5039055;28;20099;-68
2023/08/18 07:40:25;;;;;;;7.32;2.38;;;;;;;;;;5038879;28;20171;-69
2023/08/18 07:42:51;;;;;;;9.65;2.55;;;;;;;;;;5039097;28;20024;-67
2023/08/18 07:45:16;;;;;;;6.97;2.80;;;;;;;;;;5050731;28;20025;-69
2023/08/18 07:47:44;;;;;;;13.23;2.60;;;;;;;;;;5050806;28;20021;-68
2023/08/18 07:50:10;;;;;;;4.18;2.78;;;;;;;;;;5050660;28;20044;-68
2023/08/18 07:52:37;;;;;;;10.57;2.65;;;;;;;;;;5050811;28;20120;-67
2023/08/18 07:55:04;;;;;;;6.10;2.35;;;;;;;;;;5050441;28;20036;-68
2023/08/18 07:57:30;;;;;;;4.93;2.35;;;;;;;;;;5050504;28;20025;-67
2023/08/18 07:59:56;;;;;;;8.82;2.50;;;;;;;;;;5050246;28;20043;-67
2023/08/18 08:02:22;;;;;;;6.50;2.55;;;;;;;;;;5033102;28;20021;-68
2023/08/18 08:04:50;;;;;;;6.57;2.50;;;;;;;;;;5038839;28;20022;-68
2023/08/18 08:07:16;;;;;;;8.57;2.60;;;;;;;;;;5033565;28;20060;-67
2023/08/18 08:09:42;;;;;;;6.78;2.60;;;;;;;;;;5032819;28;20033;-67
2023/08/18 08:12:07;;;;;;;6.40;2.47;;;;;;;;;;5042170;28;20040;-68
2023/08/18 08:14:33;;;;;;;4.40;2.45;;;;;;;;;;5037877;28;20029;-68
2023/08/18 08:16:58;;;;;;;7.28;2.35;;;;;;;;;;5053361;28;20271;-67
2023/08/18 08:19:25;;;;;;;6.25;3.30;;;;;;;;;;5047514;28;20030;-68
2023/08/18 08:21:50;;;;;;;5.13;2.38;;;;;;;;;;5018013;28;20539;-67
2023/08/18 08:24:16;;;;;;;6.45;2.63;;;;;;;;;;5030098;28;20029;-67
2023/08/18 08:26:42;;;;;;;6.38;2.50;;;;;;;;;;5039177;28;20021;-68
2023/08/18 08:29:07;;;;;;;7.82;2.15;;;;;;;;;;5043528;28;20029;-66
2023/08/18 08:31:33;;;;;;;5.10;2.58;;;;;;;;;;5030881;28;20166;-66
2023/08/18 08:33:59;;;;;;;4.68;2.63;;;;;;;;;;5050998;28;20494;-68
2023/08/18 08:36:28;;;;;;;4.20;2.35;;;;;;;;;;5042687;28;20032;-68
2023/08/18 08:38:53;;;;;;;9.65;2.38;;;;;;;;;;5033236;28;20495;-68
2023/08/18 08:41:19;;;;;;;8.35;3.10;;;;;;;;;;5034024;28;20068;-68
2023/08/18 08:43:45;;;;;;;7.38;3.20;;;;;;;;;;5034356;28;20109;-68
2023/08/18 08:46:11;;;;;;;8.23;2.85;;;;;;;;;;5033682;28;20487;-68
2023/08/18 08:48:45;;;;;;;5.20;2.72;;;;;;;;;;5034065;28;20188;-68
2023/08/18 08:51:11;;;;;;;4.15;2.40;;;;;;;;;;5033991;28;20042;-67
2023/08/18 08:53:45;;;;;;;7.32;2.63;;;;;;;;;;5031946;28;20120;-68
2023/08/18 08:56:13;;;;;;;4.55;2.53;;;;;;;;;;5033957;28;20422;-68
2023/08/18 08:58:39;;;;;;;5.97;2.60;;;;;;;;;;5034330;28;20033;-68
2023/08/18 09:01:08;;;;;;;6.38;2.90;;;;;;;;;;5033889;28;20056;-67
2023/08/18 09:03:34;;;;;;;5.57;2.80;;;;;;;;;;5034508;28;20025;-67
2023/08/18 09:05:59;;;;;;;7.10;2.60;;;;;;;;;;5033934;28;20112;-67
2023/08/18 09:08:25;;;;;;;3.83;2.35;;;;;;;;;;5033797;28;20116;-67
2023/08/18 09:10:51;;;;;;;7.70;2.88;;;;;;;;;;5032902;28;20047;-67
2023/08/18 09:13:17;;;;;;;4.78;2.80;;;;;;;;;;5033164;28;20124;-67
2023/08/18 09:15:44;;;;;;;6.60;2.33;;;;;;;;;;5032071;28;20091;-67
2023/08/18 09:18:14;;;;;;;7.60;2.60;;;;;;;;;;5032749;28;20025;-68
2023/08/18 09:20:44;;;;;;;4.93;2.40;;;;;;;;;;5033538;28;20037;-68
2023/08/18 09:23:10;;;;;;;6.88;2.50;;;;;;;;;;5033119;28;20399;-67
2023/08/18 09:25:36;;;;;;;3.90;2.30;;;;;;;;;;5033209;28;20029;-67
2023/08/18 09:28:06;;;;;;;7.00;2.80;;;;;;;;;;5033940;28;20567;-68
2023/08/18 09:30:32;;;;;;;5.50;2.70;;;;;;;;;;5033826;28;20071;-67
2023/08/18 09:33:02;;;;;;;8.00;2.50;;;;;;;;;;5033460;28;20534;-68
2023/08/18 09:35:35;;;;;;;6.18;2.78;;;;;;;;;;5033177;28;20060;-67
2023/08/18 09:38:01;;;;;;;6.15;3.20;;;;;;;;;;5033594;28;20065;-67
2023/08/18 09:40:28;;;;;;;5.50;2.58;;;;;;;;;;5033421;28;20080;-67
2023/08/18 09:42:55;;;;;;;6.18;2.40;;;;;;;;;;5033557;28;20069;-67
2023/08/18 09:45:23;;;;;;;6.20;2.72;;;;;;;;;;5032104;28;20032;-67
2023/08/18 09:47:53;;;;;;;7.07;2.90;;;;;;;;;;5033060;28;20120;-67
2023/08/18 09:50:21;;;;;;;7.25;2.63;;;;;;;;;;5033303;28;20112;-67
2023/08/18 09:52:50;;;;;;;5.82;2.35;;;;;;;;;;5033162;28;20037;-68
2023/08/18 09:55:23;;;;;;;8.00;2.53;;;;;;;;;;5035902;28;20435;-67
2023/08/18 09:58:17;;;;;;;4.30;2.30;;;;;;;;;;5043236;28;20589;-67
2023/08/18 10:00:45;;;;;;;7.78;2.88;;;;;;;;;;5043768;28;20041;-68
2023/08/18 10:03:16;;;;;;;6.20;2.80;;;;;;;;;;5052697;28;20482;-67
2023/08/18 10:05:44;;;;;;;6.18;2.67;;;;;;;;;;5048922;28;20427;-67
2023/08/18 10:08:10;;;;;;;5.60;2.75;;;;;;;;;;5040956;28;20025;-68
2023/08/18 10:10:36;;;;;;;6.75;2.70;;;;;;;;;;5040998;28;20445;-68
2023/08/18 10:13:03;;;;;;;5.20;2.30;;;;;;;;;;5032782;28;20053;-68
2023/08/18 10:15:29;;;;;;;7.25;3.17;;;;;;;;;;5032721;28;20073;-68
2023/08/18 10:17:56;;;;;;;7.95;2.75;;;;;;;;;;5033500;28;20025;-68
2023/08/18 10:20:25;;;;;;;6.50;2.80;;;;;;;;;;5032829;28;20061;-68
2023/08/18 10:22:53;;;;;;;4.53;2.60;;;;;;;;;;5032580;28;20041;-67
2023/08/18 10:25:24;;;;;;;5.32;2.58;;;;;;;;;;5030966;28;20017;-69
2023/08/18 10:27:50;;;;;;;4.07;2.47;;;;;;;;;;5032604;28;20499;-68
2023/08/18 10:30:27;;;;;;;6.72;2.70;;;;;;;;;;5032749;28;20029;-67
2023/08/18 10:32:55;;;;;;;7.05;2.60;;;;;;;;;;5032002;28;20037;-68
2023/08/18 10:35:23;;;;;;;6.88;2.53;;;;;;;;;;5032259;28;20017;-69
2023/08/18 10:37:50;;;;;;;6.82;2.30;;;;;;;;;;5031928;28;20056;-68
2023/08/18 10:40:23;;;;;;;7.03;2.90;;;;;;;;;;5032197;28;20443;-68
2023/08/18 10:43:01;;;;;;;3.97;2.80;;;;;;;;;;5032342;28;20033;-67
2023/08/18 10:45:28;;;;;;;5.82;2.53;;;;;;;;;;5032166;28;20622;-67
2023/08/18 10:48:05;;;;;;;9.38;2.95;;;;;;;;;;5032379;28;20260;-69
2023/08/18 10:50:34;;;;;;;6.78;2.72;;;;;;;;;;5032029;28;20487;-67
2023/08/18 10:53:01;;;;;;;7.05;2.30;;;;;;;;;;5031890;28;20592;-68
2023/08/18 10:55:28;;;;;;;4.38;2.35;;;;;;;;;;5032106;28;20079;-67
2023/08/18 10:57:53;;;;;;;8.88;2.80;;;;;;;;;;5032126;28;20021;-68
2023/08/18 11:00:19;;;;;;;8.10;2.35;;;;;;;;;;5030856;28;20033;-68
2023/08/18 11:02:50;;;;;;;5.53;2.30;;;;;;;;;;5032198;28;20029;-68
2023/08/18 11:05:20;;;;;;;3.67;2.58;;;;;;;;;;5032147;28;20373;-68
2023/08/18 11:07:47;;;;;;;5.18;2.40;;;;;;;;;;5032041;28;20083;-69
2023/08/18 11:10:18;;;;;;;3.97;2.45;;;;;;;;;;5032078;28;20025;-68
2023/08/18 11:12:44;;;;;;;4.15;2.20;;;;;;;;;;5032111;28;20041;-67
2023/08/18 11:15:11;;;;;;;7.93;2.60;;;;;;;;;;5031790;28;20017;-68
2023/08/18 11:17:37;;;;;;;5.85;2.60;;;;;;;;;;5032573;28;20044;-69
2023/08/18 11:20:07;;;;;;;3.75;2.22;;;;;;;;;;5031962;28;20393;-69
2023/08/18 11:22:36;;;;;;;10.07;2.67;;;;;;;;;;5031603;28;20494;-70
2023/08/18 11:25:03;;;;;;;5.22;2.28;;;;;;;;;;5031781;28;20028;-70
2023/08/18 11:27:30;;;;;;;8.02;2.15;;;;;;;;;;5031670;28;20037;-69
2023/08/18 11:29:57;;;;;;;8.57;3.00;;;;;;;;;;5031539;28;20036;-70
2023/08/18 11:32:22;;;;;;;5.38;2.45;;;;;;;;;;5031923;28;20077;-69
2023/08/18 11:34:48;;;;;;;4.82;2.88;;;;;;;;;;5031658;28;20509;-69
2023/08/18 11:37:14;;;;;;;2.92;2.50;;;;;;;;;;5032893;28;20041;-69
2023/08/18 11:39:39;;;;;;;6.95;2.80;;;;;;;;;;5033592;28;20048;-68
2023/08/18 11:42:05;;;;;;;7.05;2.47;;;;;;;;;;5031600;28;20052;-69
2023/08/18 11:44:33;;;;;;;7.93;2.83;;;;;;;;;;5031639;28;20026;-69
2023/08/18 11:47:00;;;;;;;3.55;2.25;;;;;;;;;;5035395;28;20041;-69
2023/08/18 11:49:26;;;;;;;6.97;2.50;;;;;;;;;;5036842;28;20033;-70
2023/08/18 11:52:05;;;;;;;6.88;2.75;;;;;;;;;;5035940;28;20446;-68
2023/08/18 11:54:36;;;;;;;5.43;2.40;;;;;;;;;;5035894;28;20157;-69
2023/08/18 11:57:03;;;;;;;4.97;2.20;;;;;;;;;;5017936;28;20041;-70
2023/08/18 11:59:29;;;;;;;5.55;2.53;;;;;;;;;;5035993;28;20049;-69
2023/08/18 12:02:05;;;;;;;4.22;2.50;;;;;;;;;;5036081;28;20080;-68
2023/08/18 12:04:32;;;;;;;3.42;2.55;;;;;;;;;;5035869;28;20052;-68
2023/08/18 12:06:58;;;;;;;6.75;2.42;;;;;;;;;;5034126;28;20057;-67
2023/08/18 12:09:24;;;;;;;4.55;3.20;;;;;;;;;;5035488;28;20057;-68
2023/08/18 12:11:51;;;;;;;4.93;2.90;;;;;;;;;;5035427;28;20442;-68
2023/08/18 12:14:17;;;;;;;6.25;2.30;;;;;;;;;;5035414;28;20038;-67
2023/08/18 12:16:43;;;;;;;5.40;2.95;;;;;;;;;;5035417;28;20021;-69
2023/08/18 12:19:11;;;;;;;6.22;2.42;;;;;;;;;;5034947;28;20544;-69
2023/08/18 12:21:37;;;;;;;5.78;2.55;;;;;;;;;;5042037;28;20101;-68
2023/08/18 12:24:07;;;;;;;5.15;2.22;;;;;;;;;;5034423;28;20065;-68
2023/08/18 12:26:33;;;;;;;4.28;2.45;;;;;;;;;;5032700;28;20036;-68
2023/08/18 12:29:00;;;;;;;7.40;2.35;;;;;;;;;;5034912;28;20036;-68
2023/08/18 12:31:27;;;;;;;6.78;2.50;;;;;;;;;;5033451;28;20119;-68
2023/08/18 12:33:53;;;;;;;3.13;2.20;;;;;;;;;;5042747;28;20120;-69
2023/08/18 12:36:19;;;;;;;5.03;2.40;;;;;;;;;;5048042;28;20017;-68
2023/08/18 12:38:46;;;;;;;5.47;2.20;;;;;;;;;;5045885;28;20041;-68
2023/08/18 12:41:15;;;;;;;6.45;2.47;;;;;;;;;;5046167;28;20027;-69
2023/08/18 12:43:41;;;;;;;5.35;2.20;;;;;;;;;;5036571;28;20072;-66
2023/08/18 12:46:07;;;;;;;7.07;2.50;;;;;;;;;;5031506;28;20045;-69
2023/08/18 12:48:34;;;;;;;6.05;2.55;;;;;;;;;;5041300;28;20041;-68
2023/08/18 12:51:00;;;;;;;7.18;2.60;;;;;;;;;;5044701;28;20028;-69
2023/08/18 12:53:26;;;;;;;4.90;2.58;;;;;;;;;;5033030;28;20383;-69
2023/08/18 12:55:52;;;;;;;7.03;2.30;;;;;;;;;;5032462;28;20022;-69
2023/08/18 12:58:17;;;;;;;6.80;2.42;;;;;;;;;;5033577;28;20041;-67
2023/08/18 13:00:43;;;;;;;6.60;2.33;;;;;;;;;;5032564;28;20387;-68
2023/08/18 13:03:09;;;;;;;6.20;2.58;;;;;;;;;;5032333;28;20048;-68
2023/08/18 13:05:34;;;;;;;3.53;2.30;;;;;;;;;;5027090;28;20022;-69
2023/08/18 13:08:00;;;;;;;5.28;2.50;;;;;;;;;;5043000;28;20048;-68
2023/08/18 13:10:26;;;;;;;4.63;2.70;;;;;;;;;;5043987;28;20387;-68
2023/08/18 13:12:51;;;;;;;6.88;2.75;;;;;;;;;;5052871;28;20493;-69
2023/08/18 13:15:17;;;;;;;5.45;2.58;;;;;;;;;;5042961;28;20029;-69
2023/08/18 13:17:43;;;;;;;7.70;2.50;;;;;;;;;;5027091;28;20061;-68
2023/08/18 13:20:10;;;;;;;6.55;2.85;;;;;;;;;;5029416;28;20491;-68
2023/08/18 13:22:37;;;;;;;5.85;2.55;;;;;;;;;;5041086;28;20491;-68
2023/08/18 13:25:12;;;;;;;5.53;2.72;;;;;;;;;;5038962;28;20021;-69
2023/08/18 13:27:40;;;;;;;3.78;2.30;;;;;;;;;;5035265;28;20383;-67
2023/08/18 13:30:08;;;;;;;8.65;2.38;;;;;;;;;;5029050;28;20035;-67
2023/08/18 13:32:38;;;;;;;4.88;2.60;;;;;;;;;;5040816;28;20483;-70
2023/08/18 13:35:04;;;;;;;3.28;2.30;;;;;;;;;;5039553;28;20510;-71
2023/08/18 13:37:30;;;;;;;3.88;2.40;;;;;;;;;;5016972;28;20025;-71
2023/08/18 13:39:55;;;;;;;4.40;2.28;;;;;;;;;;5036418;28;20040;-68
2023/08/18 13:42:22;;;;;;;6.47;2.60;;;;;;;;;;5039263;28;20380;-68
2023/08/18 13:44:48;;;;;;;6.00;2.40;;;;;;;;;;5045223;28;20106;-70
2023/08/18 13:47:13;;;;;;;4.75;2.78;;;;;;;;;;5053260;28;20457;-69
2023/08/18 13:49:40;;;;;;;4.63;2.70;;;;;;;;;;5049255;28;20033;-68
2023/08/18 13:52:06;;;;;;;5.88;2.63;;;;;;;;;;5033049;28;20083;-69
2023/08/18 13:54:32;;;;;;;4.07;2.47;;;;;;;;;;5032977;28;20036;-68
2023/08/18 13:56:58;;;;;;;5.35;2.85;;;;;;;;;;5039928;28;20108;-67
2023/08/18 13:59:24;;;;;;;9.68;2.50;;;;;;;;;;5047171;28;20033;-68
2023/08/18 14:01:49;;;;;;;4.95;2.75;;;;;;;;;;5052176;28;20025;-69
2023/08/18 14:04:17;;;;;;;4.70;2.47;;;;;;;;;;5052880;28;20081;-68
2023/08/18 14:06:44;;;;;;;5.00;2.65;;;;;;;;;;5052774;28;20020;-67
2023/08/18 14:09:09;;;;;;;4.38;2.80;;;;;;;;;;5052372;28;20078;-67
2023/08/18 14:11:35;;;;;;;6.90;3.38;;;;;;;;;;5052880;28;20024;-68
2023/08/18 14:14:01;;;;;;;4.60;2.53;;;;;;;;;;5053111;28;20479;-68
2023/08/18 14:16:27;;;;;;;5.90;3.08;;;;;;;;;;5052963;28;20025;-68
2023/08/18 14:18:53;;;;;;;6.93;2.72;;;;;;;;;;5045374;28;20105;-68
2023/08/18 14:21:20;;;;;;;5.18;2.83;;;;;;;;;;5033062;28;20086;-68
2023/08/18 14:23:46;;;;;;;5.32;2.88;;;;;;;;;;5032483;28;20055;-68
2023/08/18 14:26:12;;;;;;;8.63;2.65;;;;;;;;;;5032516;28;20025;-68
2023/08/18 14:28:38;;;;;;;7.30;2.90;;;;;;;;;;5032383;28;20459;-66
2023/08/18 14:31:08;;;;;;;5.43;2.60;;;;;;;;;;5031864;28;20036;-67
2023/08/18 14:33:34;;;;;;;5.63;2.42;;;;;;;;;;5032523;28;20472;-68
2023/08/18 14:36:00;;;;;;;6.53;2.45;;;;;;;;;;5032476;28;20071;-68
2023/08/18 14:38:26;;;;;;;7.88;2.80;;;;;;;;;;5032365;28;20038;-68
2023/08/18 14:40:54;;;;;;;4.00;2.40;;;;;;;;;;5032857;28;20391;-68